sensor_id;sensor_type;location;lat;lon;timestamp;temperature;humidity
61374;DHT22;47242;48.158;-1.586;2022-09-09T00:01:10;18.30;75.30
61374;DHT22;47242;48.158;-1.586;2022-09-09T00:04:05;18.30;75.30
61374;DHT22;47242;48.158;-1.586;2022-09-09T00:06:45;18.20;75.60
61374;DHT22;47242;48.158;-1.586;2022-09-09T00:09:19;18.20;75.60
61374;DHT22;47242;48.158;-1.586;2022-09-09T00:12:04;18.10;75.80
61374;DHT22;47242;48.158;-1.586;2022-09-09T00:14:48;18.20;75.70
61374;DHT22;47242;48.158;-1.586;2022-09-09T00:17:29;18.20;75.60
61374;DHT22;47242;48.158;-1.586;2022-09-09T00:20:26;18.20;75.70
61374;DHT22;47242;48.158;-1.586;2022-09-09T00:23:12;18.10;75.70
61374;DHT22;47242;48.158;-1.586;2022-09-09T00:25:54;18.10;76.00
61374;DHT22;47242;48.158;-1.586;2022-09-09T00:28:27;18.10;76.10
61374;DHT22;47242;48.158;-1.586;2022-09-09T00:31:02;18.20;76.00
61374;DHT22;47242;48.158;-1.586;2022-09-09T00:33:34;18.20;75.90
61374;DHT22;47242;48.158;-1.586;2022-09-09T00:36:01;18.20;75.70
61374;DHT22;47242;48.158;-1.586;2022-09-09T00:38:31;18.20;75.60
61374;DHT22;47242;48.158;-1.586;2022-09-09T00:41:20;18.10;75.70
61374;DHT22;47242;48.158;-1.586;2022-09-09T00:43:56;18.00;76.10
61374;DHT22;47242;48.158;-1.586;2022-09-09T00:54:52;17.90;76.40
61374;DHT22;47242;48.158;-1.586;2022-09-09T00:57:30;17.90;76.60
61374;DHT22;47242;48.158;-1.586;2022-09-09T01:00:25;17.80;76.60
61374;DHT22;47242;48.158;-1.586;2022-09-09T01:05:44;17.70;77.00
61374;DHT22;47242;48.158;-1.586;2022-09-09T01:10:52;17.70;76.80
61374;DHT22;47242;48.158;-1.586;2022-09-09T01:13:29;17.70;76.80
61374;DHT22;47242;48.158;-1.586;2022-09-09T01:15:57;17.70;76.70
61374;DHT22;47242;48.158;-1.586;2022-09-09T01:18:28;17.70;76.90
61374;DHT22;47242;48.158;-1.586;2022-09-09T01:24:22;17.80;76.60
61374;DHT22;47242;48.158;-1.586;2022-09-09T01:26:54;17.80;76.70
61374;DHT22;47242;48.158;-1.586;2022-09-09T01:29:21;17.80;76.60
61374;DHT22;47242;48.158;-1.586;2022-09-09T01:31:59;17.80;76.50
61374;DHT22;47242;48.158;-1.586;2022-09-09T01:34:29;17.80;76.30
61374;DHT22;47242;48.158;-1.586;2022-09-09T01:37:11;17.80;76.20
61374;DHT22;47242;48.158;-1.586;2022-09-09T01:39:40;17.80;76.20
61374;DHT22;47242;48.158;-1.586;2022-09-09T01:42:09;17.80;76.20
61374;DHT22;47242;48.158;-1.586;2022-09-09T01:44:37;17.80;76.30
61374;DHT22;47242;48.158;-1.586;2022-09-09T01:47:04;17.80;76.20
61374;DHT22;47242;48.158;-1.586;2022-09-09T01:49:48;17.80;76.50
61374;DHT22;47242;48.158;-1.586;2022-09-09T01:55:40;17.70;76.50
61374;DHT22;47242;48.158;-1.586;2022-09-09T02:01:12;17.70;76.80
61374;DHT22;47242;48.158;-1.586;2022-09-09T02:03:44;17.70;76.80
61374;DHT22;47242;48.158;-1.586;2022-09-09T02:06:25;17.60;77.10
61374;DHT22;47242;48.158;-1.586;2022-09-09T02:08:54;17.60;77.10
61374;DHT22;47242;48.158;-1.586;2022-09-09T02:11:27;17.60;77.20
61374;DHT22;47242;48.158;-1.586;2022-09-09T02:14:01;17.60;77.10
61374;DHT22;47242;48.158;-1.586;2022-09-09T02:19:22;17.70;77.20
61374;DHT22;47242;48.158;-1.586;2022-09-09T02:22:01;17.60;77.50
61374;DHT22;47242;48.158;-1.586;2022-09-09T02:24:29;17.50;77.80
61374;DHT22;47242;48.158;-1.586;2022-09-09T02:26:56;17.50;77.70
61374;DHT22;47242;48.158;-1.586;2022-09-09T02:29:26;17.60;77.60
61374;DHT22;47242;48.158;-1.586;2022-09-09T02:31:56;17.70;77.50
61374;DHT22;47242;48.158;-1.586;2022-09-09T02:34:23;17.70;77.40
61374;DHT22;47242;48.158;-1.586;2022-09-09T02:36:51;17.70;77.30
61374;DHT22;47242;48.158;-1.586;2022-09-09T02:39:19;17.70;77.30
61374;DHT22;47242;48.158;-1.586;2022-09-09T02:41:57;17.70;77.20
61374;DHT22;47242;48.158;-1.586;2022-09-09T02:44:22;17.70;77.20
61374;DHT22;47242;48.158;-1.586;2022-09-09T02:52:29;17.70;77.40
61374;DHT22;47242;48.158;-1.586;2022-09-09T02:54:59;17.70;77.40
61374;DHT22;47242;48.158;-1.586;2022-09-09T02:57:28;17.70;77.20
61374;DHT22;47242;48.158;-1.586;2022-09-09T02:59:58;17.70;77.30
61374;DHT22;47242;48.158;-1.586;2022-09-09T03:02:24;17.70;77.10
61374;DHT22;47242;48.158;-1.586;2022-09-09T03:04:50;17.70;77.00
61374;DHT22;47242;48.158;-1.586;2022-09-09T03:07:18;17.70;77.00
61374;DHT22;47242;48.158;-1.586;2022-09-09T03:09:44;17.70;76.90
61374;DHT22;47242;48.158;-1.586;2022-09-09T03:12:11;17.70;76.90
61374;DHT22;47242;48.158;-1.586;2022-09-09T03:14:37;17.70;76.80
61374;DHT22;47242;48.158;-1.586;2022-09-09T03:17:04;17.80;76.70
61374;DHT22;47242;48.158;-1.586;2022-09-09T03:19:30;17.80;76.50
61374;DHT22;47242;48.158;-1.586;2022-09-09T03:21:57;17.80;76.30
61374;DHT22;47242;48.158;-1.586;2022-09-09T03:24:23;17.80;76.40
61374;DHT22;47242;48.158;-1.586;2022-09-09T03:26:49;17.70;76.50
61374;DHT22;47242;48.158;-1.586;2022-09-09T03:29:16;17.70;76.70
61374;DHT22;47242;48.158;-1.586;2022-09-09T03:31:43;17.70;76.70
61374;DHT22;47242;48.158;-1.586;2022-09-09T03:34:10;17.70;76.80
61374;DHT22;47242;48.158;-1.586;2022-09-09T03:36:36;17.70;76.80
61374;DHT22;47242;48.158;-1.586;2022-09-09T03:39:02;17.60;76.80
61374;DHT22;47242;48.158;-1.586;2022-09-09T03:41:28;17.70;76.80
61374;DHT22;47242;48.158;-1.586;2022-09-09T03:43:54;17.70;76.70
61374;DHT22;47242;48.158;-1.586;2022-09-09T03:46:22;17.70;76.70
61374;DHT22;47242;48.158;-1.586;2022-09-09T03:48:47;17.60;76.50
61374;DHT22;47242;48.158;-1.586;2022-09-09T03:51:13;17.60;76.80
61374;DHT22;47242;48.158;-1.586;2022-09-09T03:53:39;17.60;76.60
61374;DHT22;47242;48.158;-1.586;2022-09-09T03:56:06;17.60;76.90
61374;DHT22;47242;48.158;-1.586;2022-09-09T03:58:37;17.50;76.80
61374;DHT22;47242;48.158;-1.586;2022-09-09T04:01:10;17.50;77.30
61374;DHT22;47242;48.158;-1.586;2022-09-09T04:03:38;17.60;77.10
61374;DHT22;47242;48.158;-1.586;2022-09-09T04:06:07;17.60;77.00
61374;DHT22;47242;48.158;-1.586;2022-09-09T04:08:35;17.60;77.00
61374;DHT22;47242;48.158;-1.586;2022-09-09T04:11:01;17.70;76.80
61374;DHT22;47242;48.158;-1.586;2022-09-09T04:13:34;17.70;76.70
61374;DHT22;47242;48.158;-1.586;2022-09-09T04:16:02;17.70;76.90
61374;DHT22;47242;48.158;-1.586;2022-09-09T04:18:28;17.70;76.80
61374;DHT22;47242;48.158;-1.586;2022-09-09T04:20:54;17.60;76.80
61374;DHT22;47242;48.158;-1.586;2022-09-09T04:23:23;17.70;76.70
61374;DHT22;47242;48.158;-1.586;2022-09-09T04:25:54;17.60;76.90
61374;DHT22;47242;48.158;-1.586;2022-09-09T04:28:20;17.60;76.80
61374;DHT22;47242;48.158;-1.586;2022-09-09T04:30:48;17.50;77.00
61374;DHT22;47242;48.158;-1.586;2022-09-09T04:33:15;17.60;77.00
61374;DHT22;47242;48.158;-1.586;2022-09-09T04:35:48;17.60;77.10
61374;DHT22;47242;48.158;-1.586;2022-09-09T04:38:15;17.60;77.10
61374;DHT22;47242;48.158;-1.586;2022-09-09T04:40:47;17.60;77.30
61374;DHT22;47242;48.158;-1.586;2022-09-09T04:43:13;17.60;77.20
61374;DHT22;47242;48.158;-1.586;2022-09-09T04:45:40;17.60;77.30
61374;DHT22;47242;48.158;-1.586;2022-09-09T04:48:07;17.60;77.00
61374;DHT22;47242;48.158;-1.586;2022-09-09T04:50:33;17.50;77.40
61374;DHT22;47242;48.158;-1.586;2022-09-09T04:53:03;17.50;77.40
61374;DHT22;47242;48.158;-1.586;2022-09-09T04:55:30;17.50;77.40
61374;DHT22;47242;48.158;-1.586;2022-09-09T04:57:56;17.50;77.30
61374;DHT22;47242;48.158;-1.586;2022-09-09T05:00:23;17.50;77.30
61374;DHT22;47242;48.158;-1.586;2022-09-09T05:02:49;17.50;77.40
61374;DHT22;47242;48.158;-1.586;2022-09-09T05:05:14;17.50;77.60
61374;DHT22;47242;48.158;-1.586;2022-09-09T05:07:40;17.50;77.50
61374;DHT22;47242;48.158;-1.586;2022-09-09T05:10:07;17.50;77.40
61374;DHT22;47242;48.158;-1.586;2022-09-09T05:12:33;17.50;77.40
61374;DHT22;47242;48.158;-1.586;2022-09-09T05:14:58;17.40;77.50
61374;DHT22;47242;48.158;-1.586;2022-09-09T05:17:24;17.40;77.60
61374;DHT22;47242;48.158;-1.586;2022-09-09T05:19:50;17.50;77.40
61374;DHT22;47242;48.158;-1.586;2022-09-09T05:22:22;17.50;77.40
61374;DHT22;47242;48.158;-1.586;2022-09-09T05:24:49;17.40;77.50
61374;DHT22;47242;48.158;-1.586;2022-09-09T05:27:19;17.40;77.80
61374;DHT22;47242;48.158;-1.586;2022-09-09T05:29:55;17.30;77.80
61374;DHT22;47242;48.158;-1.586;2022-09-09T05:32:22;17.30;77.70
61374;DHT22;47242;48.158;-1.586;2022-09-09T05:34:47;17.30;77.70
61374;DHT22;47242;48.158;-1.586;2022-09-09T05:37:13;17.30;77.70
61374;DHT22;47242;48.158;-1.586;2022-09-09T05:39:39;17.40;77.60
61374;DHT22;47242;48.158;-1.586;2022-09-09T05:42:05;17.30;77.90
61374;DHT22;47242;48.158;-1.586;2022-09-09T05:44:38;17.30;77.90
61374;DHT22;47242;48.158;-1.586;2022-09-09T05:47:05;17.30;77.80
61374;DHT22;47242;48.158;-1.586;2022-09-09T05:49:30;17.30;77.90
61374;DHT22;47242;48.158;-1.586;2022-09-09T05:51:57;17.30;78.00
61374;DHT22;47242;48.158;-1.586;2022-09-09T05:54:22;17.30;77.90
61374;DHT22;47242;48.158;-1.586;2022-09-09T05:56:48;17.30;77.90
61374;DHT22;47242;48.158;-1.586;2022-09-09T05:59:16;17.30;78.00
61374;DHT22;47242;48.158;-1.586;2022-09-09T06:01:42;17.30;78.00
61374;DHT22;47242;48.158;-1.586;2022-09-09T06:04:07;17.30;78.00
61374;DHT22;47242;48.158;-1.586;2022-09-09T06:06:36;17.30;77.90
61374;DHT22;47242;48.158;-1.586;2022-09-09T06:09:04;17.30;77.90
61374;DHT22;47242;48.158;-1.586;2022-09-09T06:11:36;17.30;78.10
61374;DHT22;47242;48.158;-1.586;2022-09-09T06:14:03;17.30;78.10
61374;DHT22;47242;48.158;-1.586;2022-09-09T06:16:29;17.30;78.10
61374;DHT22;47242;48.158;-1.586;2022-09-09T06:18:56;17.30;78.10
61374;DHT22;47242;48.158;-1.586;2022-09-09T06:21:31;17.30;78.00
61374;DHT22;47242;48.158;-1.586;2022-09-09T06:23:58;17.30;78.00
61374;DHT22;47242;48.158;-1.586;2022-09-09T06:26:35;17.30;78.00
61374;DHT22;47242;48.158;-1.586;2022-09-09T06:29:02;17.30;77.90
61374;DHT22;47242;48.158;-1.586;2022-09-09T06:31:30;17.30;78.00
61374;DHT22;47242;48.158;-1.586;2022-09-09T06:33:57;17.30;77.90
61374;DHT22;47242;48.158;-1.586;2022-09-09T06:36:25;17.40;77.90
61374;DHT22;47242;48.158;-1.586;2022-09-09T06:38:51;17.40;77.90
61374;DHT22;47242;48.158;-1.586;2022-09-09T06:41:21;17.50;77.80
61374;DHT22;47242;48.158;-1.586;2022-09-09T06:43:47;17.40;77.50
61374;DHT22;47242;48.158;-1.586;2022-09-09T06:46:15;17.60;77.50
61374;DHT22;47242;48.158;-1.586;2022-09-09T06:48:42;17.70;77.10
61374;DHT22;47242;48.158;-1.586;2022-09-09T06:51:12;17.80;76.90
61374;DHT22;47242;48.158;-1.586;2022-09-09T06:53:40;17.80;76.90
61374;DHT22;47242;48.158;-1.586;2022-09-09T06:56:29;17.80;76.70
61374;DHT22;47242;48.158;-1.586;2022-09-09T06:58:56;17.80;76.80
61374;DHT22;47242;48.158;-1.586;2022-09-09T07:01:25;17.80;76.80
61374;DHT22;47242;48.158;-1.586;2022-09-09T07:03:54;17.70;76.90
61374;DHT22;47242;48.158;-1.586;2022-09-09T07:06:30;17.80;76.90
61374;DHT22;47242;48.158;-1.586;2022-09-09T07:09:02;17.80;76.70
61374;DHT22;47242;48.158;-1.586;2022-09-09T07:11:31;18.00;76.50
61374;DHT22;47242;48.158;-1.586;2022-09-09T07:13:58;18.10;76.30
61374;DHT22;47242;48.158;-1.586;2022-09-09T07:16:25;18.20;76.20
61374;DHT22;47242;48.158;-1.586;2022-09-09T07:18:53;18.40;75.70
61374;DHT22;47242;48.158;-1.586;2022-09-09T07:21:23;18.60;75.20
61374;DHT22;47242;48.158;-1.586;2022-09-09T07:23:49;18.80;74.50
61374;DHT22;47242;48.158;-1.586;2022-09-09T07:26:18;18.90;74.30
61374;DHT22;47242;48.158;-1.586;2022-09-09T07:28:47;18.90;73.90
61374;DHT22;47242;48.158;-1.586;2022-09-09T07:31:19;18.80;73.90
61374;DHT22;47242;48.158;-1.586;2022-09-09T07:33:46;18.90;73.80
61374;DHT22;47242;48.158;-1.586;2022-09-09T07:36:21;19.00;73.70
61374;DHT22;47242;48.158;-1.586;2022-09-09T07:38:51;19.00;73.60
61374;DHT22;47242;48.158;-1.586;2022-09-09T07:41:24;19.20;73.40
61374;DHT22;47242;48.158;-1.586;2022-09-09T07:43:50;19.30;73.60
61374;DHT22;47242;48.158;-1.586;2022-09-09T07:46:18;19.10;73.00
61374;DHT22;47242;48.158;-1.586;2022-09-09T07:48:49;19.10;73.80
61374;DHT22;47242;48.158;-1.586;2022-09-09T07:51:21;19.00;74.20
61374;DHT22;47242;48.158;-1.586;2022-09-09T07:53:51;18.90;74.20
61374;DHT22;47242;48.158;-1.586;2022-09-09T07:56:18;19.00;74.70
61374;DHT22;47242;48.158;-1.586;2022-09-09T07:58:47;18.90;74.40
61374;DHT22;47242;48.158;-1.586;2022-09-09T08:01:22;18.90;73.80
61374;DHT22;47242;48.158;-1.586;2022-09-09T08:03:53;18.90;73.90
61374;DHT22;47242;48.158;-1.586;2022-09-09T08:06:19;19.00;73.50
61374;DHT22;47242;48.158;-1.586;2022-09-09T08:08:50;19.40;73.10
61374;DHT22;47242;48.158;-1.586;2022-09-09T08:11:16;19.70;72.20
61374;DHT22;47242;48.158;-1.586;2022-09-09T08:13:43;19.80;70.40
61374;DHT22;47242;48.158;-1.586;2022-09-09T08:16:12;20.10;69.80
61374;DHT22;47242;48.158;-1.586;2022-09-09T08:18:38;20.40;69.30
61374;DHT22;47242;48.158;-1.586;2022-09-09T08:21:13;20.70;68.70
61374;DHT22;47242;48.158;-1.586;2022-09-09T08:23:40;20.70;67.90
61374;DHT22;47242;48.158;-1.586;2022-09-09T08:26:32;20.50;68.30
61374;DHT22;47242;48.158;-1.586;2022-09-09T08:29:00;20.40;68.30
61374;DHT22;47242;48.158;-1.586;2022-09-09T08:31:27;20.30;68.50
61374;DHT22;47242;48.158;-1.586;2022-09-09T08:33:57;20.10;69.10
61374;DHT22;47242;48.158;-1.586;2022-09-09T08:36:26;20.00;69.40
61374;DHT22;47242;48.158;-1.586;2022-09-09T08:38:54;19.90;69.40
61374;DHT22;47242;48.158;-1.586;2022-09-09T08:42:04;19.90;69.40
61374;DHT22;47242;48.158;-1.586;2022-09-09T08:55:51;20.30;68.70
61374;DHT22;47242;48.158;-1.586;2022-09-09T08:58:19;20.30;68.50
61374;DHT22;47242;48.158;-1.586;2022-09-09T09:03:35;20.50;68.10
61374;DHT22;47242;48.158;-1.586;2022-09-09T09:11:19;20.70;67.70
61374;DHT22;47242;48.158;-1.586;2022-09-09T09:14:01;21.30;67.00
61374;DHT22;47242;48.158;-1.586;2022-09-09T09:19:01;21.50;65.50
61374;DHT22;47242;48.158;-1.586;2022-09-09T09:21:52;21.60;64.80
61374;DHT22;47242;48.158;-1.586;2022-09-09T09:27:35;21.20;66.00
61374;DHT22;47242;48.158;-1.586;2022-09-09T09:30:16;21.20;66.00
61374;DHT22;47242;48.158;-1.586;2022-09-09T09:32:55;21.20;66.20
61374;DHT22;47242;48.158;-1.586;2022-09-09T09:35:21;21.00;66.10
61374;DHT22;47242;48.158;-1.586;2022-09-09T09:37:48;21.20;66.20
61374;DHT22;47242;48.158;-1.586;2022-09-09T09:40:14;21.40;65.60
61374;DHT22;47242;48.158;-1.586;2022-09-09T09:42:55;21.60;65.40
61374;DHT22;47242;48.158;-1.586;2022-09-09T09:45:33;22.00;64.30
61374;DHT22;47242;48.158;-1.586;2022-09-09T09:48:01;22.50;63.80
61374;DHT22;47242;48.158;-1.586;2022-09-09T09:50:27;22.90;61.40
61374;DHT22;47242;48.158;-1.586;2022-09-09T09:52:59;23.30;60.70
61374;DHT22;47242;48.158;-1.586;2022-09-09T09:55:26;23.90;57.50
61374;DHT22;47242;48.158;-1.586;2022-09-09T09:58:01;24.60;57.40
61374;DHT22;47242;48.158;-1.586;2022-09-09T10:00:27;25.30;55.40
61374;DHT22;47242;48.158;-1.586;2022-09-09T10:02:52;24.60;55.20
61374;DHT22;47242;48.158;-1.586;2022-09-09T10:05:24;24.00;55.80
61374;DHT22;47242;48.158;-1.586;2022-09-09T10:08:11;23.60;57.40
61374;DHT22;47242;48.158;-1.586;2022-09-09T10:13:39;25.10;55.30
61374;DHT22;47242;48.158;-1.586;2022-09-09T10:18:59;25.20;54.60
61374;DHT22;47242;48.158;-1.586;2022-09-09T10:35:14;23.00;59.00
61374;DHT22;47242;48.158;-1.586;2022-09-09T10:46:05;22.60;59.80
61374;DHT22;47242;48.158;-1.586;2022-09-09T10:56:44;22.80;60.40
61374;DHT22;47242;48.158;-1.586;2022-09-09T10:59:22;22.80;59.60
61374;DHT22;47242;48.158;-1.586;2022-09-09T11:01:57;23.00;59.20
61374;DHT22;47242;48.158;-1.586;2022-09-09T11:04:33;23.10;59.80
61374;DHT22;47242;48.158;-1.586;2022-09-09T11:07:04;23.10;60.10
61374;DHT22;47242;48.158;-1.586;2022-09-09T11:09:36;22.90;59.40
61374;DHT22;47242;48.158;-1.586;2022-09-09T11:12:05;22.90;60.10
61374;DHT22;47242;48.158;-1.586;2022-09-09T11:14:48;22.90;61.40
61374;DHT22;47242;48.158;-1.586;2022-09-09T11:17:23;22.80;61.30
61374;DHT22;47242;48.158;-1.586;2022-09-09T11:19:49;22.90;61.90
61374;DHT22;47242;48.158;-1.586;2022-09-09T11:30:36;23.10;60.90
61374;DHT22;47242;48.158;-1.586;2022-09-09T11:33:21;23.10;60.30
61374;DHT22;47242;48.158;-1.586;2022-09-09T11:41:05;23.60;58.80
61374;DHT22;47242;48.158;-1.586;2022-09-09T11:43:42;23.40;58.40
61374;DHT22;47242;48.158;-1.586;2022-09-09T11:46:09;23.30;59.30
61374;DHT22;47242;48.158;-1.586;2022-09-09T11:48:43;23.20;58.30
61374;DHT22;47242;48.158;-1.586;2022-09-09T11:51:13;23.20;57.80
61374;DHT22;47242;48.158;-1.586;2022-09-09T11:53:53;23.20;58.90
61374;DHT22;47242;48.158;-1.586;2022-09-09T11:56:28;23.30;58.80
61374;DHT22;47242;48.158;-1.586;2022-09-09T11:59:04;23.30;57.30
61374;DHT22;47242;48.158;-1.586;2022-09-09T12:01:41;23.30;58.50
61374;DHT22;47242;48.158;-1.586;2022-09-09T12:04:14;23.40;57.70
61374;DHT22;47242;48.158;-1.586;2022-09-09T12:06:48;23.40;57.60
61374;DHT22;47242;48.158;-1.586;2022-09-09T12:11:48;23.40;57.30
61374;DHT22;47242;48.158;-1.586;2022-09-09T12:17:21;23.40;56.70
61374;DHT22;47242;48.158;-1.586;2022-09-09T12:19:48;23.40;56.60
61374;DHT22;47242;48.158;-1.586;2022-09-09T12:22:37;23.40;56.10
61374;DHT22;47242;48.158;-1.586;2022-09-09T12:33:17;23.30;57.80
61374;DHT22;47242;48.158;-1.586;2022-09-09T12:35:43;23.20;56.90
61374;DHT22;47242;48.158;-1.586;2022-09-09T12:38:16;23.20;56.20
61374;DHT22;47242;48.158;-1.586;2022-09-09T12:40:54;23.20;57.70
61374;DHT22;47242;48.158;-1.586;2022-09-09T12:43:22;23.10;57.60
61374;DHT22;47242;48.158;-1.586;2022-09-09T12:45:51;23.20;57.60
61374;DHT22;47242;48.158;-1.586;2022-09-09T12:48:27;23.30;57.80
61374;DHT22;47242;48.158;-1.586;2022-09-09T12:50:54;23.40;58.30
61374;DHT22;47242;48.158;-1.586;2022-09-09T12:53:33;23.70;57.80
61374;DHT22;47242;48.158;-1.586;2022-09-09T12:56:17;23.80;57.30
61374;DHT22;47242;48.158;-1.586;2022-09-09T12:58:47;23.90;57.50
61374;DHT22;47242;48.158;-1.586;2022-09-09T13:01:26;24.00;55.80
61374;DHT22;47242;48.158;-1.586;2022-09-09T13:03:53;24.20;55.60
61374;DHT22;47242;48.158;-1.586;2022-09-09T13:06:31;24.30;55.70
61374;DHT22;47242;48.158;-1.586;2022-09-09T13:08:59;24.40;55.20
61374;DHT22;47242;48.158;-1.586;2022-09-09T13:11:38;24.30;55.00
61374;DHT22;47242;48.158;-1.586;2022-09-09T13:14:05;24.30;54.80
61374;DHT22;47242;48.158;-1.586;2022-09-09T13:16:34;24.20;54.20
61374;DHT22;47242;48.158;-1.586;2022-09-09T13:19:07;24.20;55.50
61374;DHT22;47242;48.158;-1.586;2022-09-09T13:21:38;24.00;55.50
61374;DHT22;47242;48.158;-1.586;2022-09-09T13:26:55;23.80;58.20
61374;DHT22;47242;48.158;-1.586;2022-09-09T13:29:22;23.70;59.40
61374;DHT22;47242;48.158;-1.586;2022-09-09T13:31:48;23.80;60.50
61374;DHT22;47242;48.158;-1.586;2022-09-09T13:34:30;23.80;59.90
61374;DHT22;47242;48.158;-1.586;2022-09-09T13:36:59;24.00;59.90
61374;DHT22;47242;48.158;-1.586;2022-09-09T13:39:27;23.80;57.30
61374;DHT22;47242;48.158;-1.586;2022-09-09T13:41:53;23.80;57.40
61374;DHT22;47242;48.158;-1.586;2022-09-09T13:44:29;23.70;58.40
61374;DHT22;47242;48.158;-1.586;2022-09-09T13:49:34;23.30;60.50
61374;DHT22;47242;48.158;-1.586;2022-09-09T13:52:10;23.00;61.80
61374;DHT22;47242;48.158;-1.586;2022-09-09T13:54:37;22.90;63.70
61374;DHT22;47242;48.158;-1.586;2022-09-09T13:57:03;22.80;64.20
61374;DHT22;47242;48.158;-1.586;2022-09-09T13:59:30;22.60;64.90
61374;DHT22;47242;48.158;-1.586;2022-09-09T14:01:57;22.50;65.30
61374;DHT22;47242;48.158;-1.586;2022-09-09T14:04:23;22.30;65.30
61374;DHT22;47242;48.158;-1.586;2022-09-09T14:06:49;22.30;66.20
61374;DHT22;47242;48.158;-1.586;2022-09-09T14:09:17;22.30;67.20
61374;DHT22;47242;48.158;-1.586;2022-09-09T14:11:44;22.30;66.80
61374;DHT22;47242;48.158;-1.586;2022-09-09T14:14:11;22.30;67.20
61374;DHT22;47242;48.158;-1.586;2022-09-09T14:16:36;22.20;67.30
61374;DHT22;47242;48.158;-1.586;2022-09-09T14:19:03;22.20;66.70
61374;DHT22;47242;48.158;-1.586;2022-09-09T14:21:29;22.20;66.70
61374;DHT22;47242;48.158;-1.586;2022-09-09T14:23:54;22.30;67.30
61374;DHT22;47242;48.158;-1.586;2022-09-09T14:26:23;22.30;65.80
61374;DHT22;47242;48.158;-1.586;2022-09-09T14:28:49;22.30;66.50
61374;DHT22;47242;48.158;-1.586;2022-09-09T14:31:15;22.30;64.70
61374;DHT22;47242;48.158;-1.586;2022-09-09T14:33:43;22.40;65.60
61374;DHT22;47242;48.158;-1.586;2022-09-09T14:36:09;22.50;65.60
61374;DHT22;47242;48.158;-1.586;2022-09-09T14:38:37;22.30;65.80
61374;DHT22;47242;48.158;-1.586;2022-09-09T14:41:10;22.40;65.40
61374;DHT22;47242;48.158;-1.586;2022-09-09T14:43:38;22.40;65.20
61374;DHT22;47242;48.158;-1.586;2022-09-09T14:46:15;22.30;64.80
61374;DHT22;47242;48.158;-1.586;2022-09-09T14:48:41;22.30;65.30
61374;DHT22;47242;48.158;-1.586;2022-09-09T14:51:16;22.30;65.60
61374;DHT22;47242;48.158;-1.586;2022-09-09T14:53:44;22.20;65.80
61374;DHT22;47242;48.158;-1.586;2022-09-09T14:56:15;22.20;65.40
61374;DHT22;47242;48.158;-1.586;2022-09-09T14:58:42;22.20;65.10
61374;DHT22;47242;48.158;-1.586;2022-09-09T15:01:10;22.20;65.40
61374;DHT22;47242;48.158;-1.586;2022-09-09T15:03:36;22.10;64.20
61374;DHT22;47242;48.158;-1.586;2022-09-09T15:08:36;22.10;62.70
61374;DHT22;47242;48.158;-1.586;2022-09-09T15:11:03;22.10;62.60
61374;DHT22;47242;48.158;-1.586;2022-09-09T15:13:29;22.10;61.80
61374;DHT22;47242;48.158;-1.586;2022-09-09T15:15:55;22.10;62.60
61374;DHT22;47242;48.158;-1.586;2022-09-09T15:18:21;22.20;62.50
61374;DHT22;47242;48.158;-1.586;2022-09-09T15:20:47;22.20;62.50
61374;DHT22;47242;48.158;-1.586;2022-09-09T15:23:13;22.30;62.90
61374;DHT22;47242;48.158;-1.586;2022-09-09T15:25:50;22.30;62.30
61374;DHT22;47242;48.158;-1.586;2022-09-09T15:28:17;22.30;62.20
61374;DHT22;47242;48.158;-1.586;2022-09-09T15:30:43;22.30;62.20
61374;DHT22;47242;48.158;-1.586;2022-09-09T15:33:10;22.30;61.90
61374;DHT22;47242;48.158;-1.586;2022-09-09T15:35:36;22.30;62.60
61374;DHT22;47242;48.158;-1.586;2022-09-09T15:38:02;22.10;63.10
61374;DHT22;47242;48.158;-1.586;2022-09-09T15:40:30;22.00;63.50
61374;DHT22;47242;48.158;-1.586;2022-09-09T15:42:58;21.90;63.40
61374;DHT22;47242;48.158;-1.586;2022-09-09T15:45:24;21.80;63.60
61374;DHT22;47242;48.158;-1.586;2022-09-09T15:47:49;21.80;64.30
61374;DHT22;47242;48.158;-1.586;2022-09-09T15:50:15;21.90;64.10
61374;DHT22;47242;48.158;-1.586;2022-09-09T15:52:41;22.00;64.00
61374;DHT22;47242;48.158;-1.586;2022-09-09T15:55:07;22.10;64.10
61374;DHT22;47242;48.158;-1.586;2022-09-09T15:57:34;22.20;64.40
61374;DHT22;47242;48.158;-1.586;2022-09-09T16:00:01;22.20;64.00
61374;DHT22;47242;48.158;-1.586;2022-09-09T16:02:28;22.20;64.20
61374;DHT22;47242;48.158;-1.586;2022-09-09T16:04:53;22.00;63.70
61374;DHT22;47242;48.158;-1.586;2022-09-09T16:07:19;22.10;63.60
61374;DHT22;47242;48.158;-1.586;2022-09-09T16:09:45;22.20;63.10
61374;DHT22;47242;48.158;-1.586;2022-09-09T16:12:11;22.20;63.20
61374;DHT22;47242;48.158;-1.586;2022-09-09T16:14:38;22.20;63.20
61374;DHT22;47242;48.158;-1.586;2022-09-09T16:17:05;22.30;63.00
61374;DHT22;47242;48.158;-1.586;2022-09-09T16:19:31;22.30;62.90
61374;DHT22;47242;48.158;-1.586;2022-09-09T16:21:57;22.30;63.30
61374;DHT22;47242;48.158;-1.586;2022-09-09T16:24:23;22.30;62.60
61374;DHT22;47242;48.158;-1.586;2022-09-09T16:26:53;22.30;62.90
61374;DHT22;47242;48.158;-1.586;2022-09-09T16:29:20;22.20;63.30
61374;DHT22;47242;48.158;-1.586;2022-09-09T16:31:48;22.20;62.30
61374;DHT22;47242;48.158;-1.586;2022-09-09T16:34:15;22.00;62.10
61374;DHT22;47242;48.158;-1.586;2022-09-09T16:36:42;21.80;61.70
61374;DHT22;47242;48.158;-1.586;2022-09-09T16:39:11;21.80;60.30
61374;DHT22;47242;48.158;-1.586;2022-09-09T16:41:37;22.00;58.70
61374;DHT22;47242;48.158;-1.586;2022-09-09T16:44:05;22.00;59.00
61374;DHT22;47242;48.158;-1.586;2022-09-09T16:46:39;22.00;58.90
61374;DHT22;47242;48.158;-1.586;2022-09-09T16:49:08;22.00;59.30
61374;DHT22;47242;48.158;-1.586;2022-09-09T16:51:42;21.90;59.60
61374;DHT22;47242;48.158;-1.586;2022-09-09T16:54:09;21.80;59.60
61374;DHT22;47242;48.158;-1.586;2022-09-09T16:56:38;21.80;60.20
61374;DHT22;47242;48.158;-1.586;2022-09-09T16:59:09;21.70;60.30
61374;DHT22;47242;48.158;-1.586;2022-09-09T17:01:37;21.70;60.70
61374;DHT22;47242;48.158;-1.586;2022-09-09T17:04:05;21.50;60.60
61374;DHT22;47242;48.158;-1.586;2022-09-09T17:06:31;21.50;60.60
61374;DHT22;47242;48.158;-1.586;2022-09-09T17:09:08;21.40;60.30
61374;DHT22;47242;48.158;-1.586;2022-09-09T17:11:35;21.30;59.90
61374;DHT22;47242;48.158;-1.586;2022-09-09T17:14:01;21.30;60.50
61374;DHT22;47242;48.158;-1.586;2022-09-09T17:16:29;21.30;60.40
61374;DHT22;47242;48.158;-1.586;2022-09-09T17:18:56;21.20;60.50
61374;DHT22;47242;48.158;-1.586;2022-09-09T17:21:24;21.20;60.40
61374;DHT22;47242;48.158;-1.586;2022-09-09T17:23:51;21.30;60.40
61374;DHT22;47242;48.158;-1.586;2022-09-09T17:26:19;21.30;60.40
61374;DHT22;47242;48.158;-1.586;2022-09-09T17:28:45;21.30;60.40
61374;DHT22;47242;48.158;-1.586;2022-09-09T17:31:13;21.20;60.50
61374;DHT22;47242;48.158;-1.586;2022-09-09T17:33:43;21.20;60.80
61374;DHT22;47242;48.158;-1.586;2022-09-09T17:36:12;21.10;60.10
61374;DHT22;47242;48.158;-1.586;2022-09-09T17:38:38;21.10;59.70
61374;DHT22;47242;48.158;-1.586;2022-09-09T17:41:06;21.10;59.20